sensor_id;sensor_type;location;lat;lon;timestamp;P1;durP1;ratioP1;P2;durP2;ratioP2
51724;SDS011;37801;53.224;6.552;2023-06-19T00:02:10;10.88;;;6.60;;
51724;SDS011;37801;53.224;6.552;2023-06-19T00:04:36;6.95;;;6.03;;
51724;SDS011;37801;53.224;6.552;2023-06-19T00:07:03;7.53;;;6.25;;
51724;SDS011;37801;53.224;6.552;2023-06-19T00:09:29;7.30;;;5.85;;
51724;SDS011;37801;53.224;6.552;2023-06-19T00:11:55;6.50;;;5.50;;
51724;SDS011;37801;53.224;6.552;2023-06-19T00:14:23;6.78;;;5.68;;
51724;SDS011;37801;53.224;6.552;2023-06-19T00:16:49;7.50;;;5.78;;
51724;SDS011;37801;53.224;6.552;2023-06-19T00:19:16;5.97;;;5.38;;
51724;SDS011;37801;53.224;6.552;2023-06-19T00:21:43;9.90;;;5.85;;
51724;SDS011;37801;53.224;6.552;2023-06-19T00:24:09;7.70;;;6.00;;
51724;SDS011;37801;53.224;6.552;2023-06-19T00:26:36;6.72;;;5.32;;
51724;SDS011;37801;53.224;6.552;2023-06-19T00:29:02;7.57;;;5.75;;
51724;SDS011;37801;53.224;6.552;2023-06-19T00:31:29;6.93;;;5.20;;
51724;SDS011;37801;53.224;6.552;2023-06-19T00:33:55;5.90;;;5.30;;
51724;SDS011;37801;53.224;6.552;2023-06-19T00:36:22;6.88;;;5.53;;
51724;SDS011;37801;53.224;6.552;2023-06-19T00:38:51;6.88;;;5.63;;
51724;SDS011;37801;53.224;6.552;2023-06-19T00:41:17;6.50;;;5.72;;
51724;SDS011;37801;53.224;6.552;2023-06-19T00:43:43;9.13;;;5.35;;
51724;SDS011;37801;53.224;6.552;2023-06-19T00:46:10;6.45;;;5.47;;
51724;SDS011;37801;53.224;6.552;2023-06-19T00:48:37;5.95;;;5.30;;
51724;SDS011;37801;53.224;6.552;2023-06-19T00:51:03;6.85;;;5.55;;
51724;SDS011;37801;53.224;6.552;2023-06-19T00:53:29;6.97;;;5.65;;
51724;SDS011;37801;53.224;6.552;2023-06-19T00:55:56;6.45;;;5.13;;
51724;SDS011;37801;53.224;6.552;2023-06-19T00:58:23;6.55;;;5.20;;
51724;SDS011;37801;53.224;6.552;2023-06-19T01:00:50;6.68;;;5.75;;
51724;SDS011;37801;53.224;6.552;2023-06-19T01:03:16;7.90;;;5.85;;
51724;SDS011;37801;53.224;6.552;2023-06-19T01:05:42;7.13;;;5.80;;
51724;SDS011;37801;53.224;6.552;2023-06-19T01:10:55;6.55;;;5.20;;
51724;SDS011;37801;53.224;6.552;2023-06-19T01:13:37;8.07;;;5.65;;
51724;SDS011;37801;53.224;6.552;2023-06-19T01:18:32;6.55;;;5.35;;
51724;SDS011;37801;53.224;6.552;2023-06-19T01:21:09;9.50;;;5.75;;
51724;SDS011;37801;53.224;6.552;2023-06-19T01:23:35;6.70;;;5.57;;
51724;SDS011;37801;53.224;6.552;2023-06-19T01:26:01;8.10;;;5.20;;
51724;SDS011;37801;53.224;6.552;2023-06-19T01:28:27;8.02;;;4.82;;
51724;SDS011;37801;53.224;6.552;2023-06-19T01:30:54;8.65;;;5.28;;
51724;SDS011;37801;53.224;6.552;2023-06-19T01:33:23;7.45;;;5.10;;
51724;SDS011;37801;53.224;6.552;2023-06-19T01:35:51;6.20;;;5.15;;
51724;SDS011;37801;53.224;6.552;2023-06-19T01:38:19;7.13;;;5.15;;
51724;SDS011;37801;53.224;6.552;2023-06-19T01:40:46;7.30;;;5.15;;
51724;SDS011;37801;53.224;6.552;2023-06-19T01:43:14;6.60;;;5.45;;
51724;SDS011;37801;53.224;6.552;2023-06-19T01:45:41;9.52;;;5.50;;
51724;SDS011;37801;53.224;6.552;2023-06-19T01:48:07;6.30;;;5.10;;
51724;SDS011;37801;53.224;6.552;2023-06-19T01:50:34;6.45;;;5.43;;
51724;SDS011;37801;53.224;6.552;2023-06-19T01:53:00;7.10;;;5.40;;
51724;SDS011;37801;53.224;6.552;2023-06-19T01:55:27;6.18;;;5.10;;
51724;SDS011;37801;53.224;6.552;2023-06-19T01:57:53;6.07;;;5.20;;
51724;SDS011;37801;53.224;6.552;2023-06-19T02:00:19;7.90;;;5.35;;
51724;SDS011;37801;53.224;6.552;2023-06-19T02:02:45;7.97;;;5.30;;
51724;SDS011;37801;53.224;6.552;2023-06-19T02:05:11;7.50;;;5.32;;
51724;SDS011;37801;53.224;6.552;2023-06-19T02:07:38;5.85;;;5.25;;
51724;SDS011;37801;53.224;6.552;2023-06-19T02:10:05;7.47;;;5.40;;
51724;SDS011;37801;53.224;6.552;2023-06-19T02:12:31;6.32;;;5.32;;
51724;SDS011;37801;53.224;6.552;2023-06-19T02:14:57;5.80;;;5.13;;
51724;SDS011;37801;53.224;6.552;2023-06-19T02:17:23;6.78;;;5.07;;
51724;SDS011;37801;53.224;6.552;2023-06-19T02:19:50;8.77;;;5.57;;
51724;SDS011;37801;53.224;6.552;2023-06-19T02:22:16;7.72;;;5.72;;
51724;SDS011;37801;53.224;6.552;2023-06-19T02:24:42;7.20;;;5.82;;
51724;SDS011;37801;53.224;6.552;2023-06-19T02:27:09;7.70;;;5.60;;
51724;SDS011;37801;53.224;6.552;2023-06-19T02:29:35;7.65;;;5.78;;
51724;SDS011;37801;53.224;6.552;2023-06-19T02:32:02;6.85;;;5.65;;
51724;SDS011;37801;53.224;6.552;2023-06-19T02:34:28;7.95;;;5.50;;
51724;SDS011;37801;53.224;6.552;2023-06-19T02:36:54;6.25;;;4.90;;
51724;SDS011;37801;53.224;6.552;2023-06-19T02:39:20;7.47;;;5.40;;
51724;SDS011;37801;53.224;6.552;2023-06-19T02:41:48;6.50;;;5.57;;
51724;SDS011;37801;53.224;6.552;2023-06-19T02:44:14;8.93;;;5.32;;
51724;SDS011;37801;53.224;6.552;2023-06-19T02:46:40;7.82;;;5.80;;
51724;SDS011;37801;53.224;6.552;2023-06-19T02:49:06;8.05;;;5.55;;
51724;SDS011;37801;53.224;6.552;2023-06-19T02:51:32;7.63;;;5.47;;
51724;SDS011;37801;53.224;6.552;2023-06-19T02:53:58;8.07;;;5.85;;
51724;SDS011;37801;53.224;6.552;2023-06-19T02:56:25;6.60;;;5.32;;
51724;SDS011;37801;53.224;6.552;2023-06-19T02:58:56;6.97;;;5.25;;
51724;SDS011;37801;53.224;6.552;2023-06-19T03:01:23;6.65;;;5.40;;
51724;SDS011;37801;53.224;6.552;2023-06-19T03:03:49;6.72;;;5.68;;
51724;SDS011;37801;53.224;6.552;2023-06-19T03:06:17;7.03;;;5.85;;
51724;SDS011;37801;53.224;6.552;2023-06-19T03:08:43;8.02;;;5.72;;
51724;SDS011;37801;53.224;6.552;2023-06-19T03:11:10;7.28;;;5.60;;
51724;SDS011;37801;53.224;6.552;2023-06-19T03:14:10;6.68;;;5.22;;
51724;SDS011;37801;53.224;6.552;2023-06-19T03:16:32;6.78;;;5.57;;
51724;SDS011;37801;53.224;6.552;2023-06-19T03:18:58;7.57;;;5.47;;
51724;SDS011;37801;53.224;6.552;2023-06-19T03:21:25;9.20;;;6.25;;
51724;SDS011;37801;53.224;6.552;2023-06-19T03:23:51;7.15;;;5.55;;
51724;SDS011;37801;53.224;6.552;2023-06-19T03:26:21;7.40;;;5.75;;
51724;SDS011;37801;53.224;6.552;2023-06-19T03:28:47;8.30;;;6.20;;
51724;SDS011;37801;53.224;6.552;2023-06-19T03:31:14;6.93;;;5.43;;
51724;SDS011;37801;53.224;6.552;2023-06-19T03:33:40;9.77;;;5.68;;
51724;SDS011;37801;53.224;6.552;2023-06-19T03:36:07;9.20;;;5.70;;
51724;SDS011;37801;53.224;6.552;2023-06-19T03:38:33;12.20;;;5.97;;
51724;SDS011;37801;53.224;6.552;2023-06-19T03:41:00;6.63;;;5.53;;
51724;SDS011;37801;53.224;6.552;2023-06-19T03:43:26;7.57;;;5.35;;
51724;SDS011;37801;53.224;6.552;2023-06-19T03:45:52;8.23;;;5.78;;
51724;SDS011;37801;53.224;6.552;2023-06-19T03:48:18;8.45;;;5.57;;
51724;SDS011;37801;53.224;6.552;2023-06-19T03:50:44;7.88;;;5.68;;
51724;SDS011;37801;53.224;6.552;2023-06-19T03:53:10;7.03;;;5.60;;
51724;SDS011;37801;53.224;6.552;2023-06-19T03:55:37;8.27;;;5.88;;
51724;SDS011;37801;53.224;6.552;2023-06-19T03:58:03;7.50;;;5.65;;
51724;SDS011;37801;53.224;6.552;2023-06-19T04:00:29;9.70;;;5.82;;
51724;SDS011;37801;53.224;6.552;2023-06-19T04:02:55;7.13;;;5.95;;
51724;SDS011;37801;53.224;6.552;2023-06-19T04:05:21;7.35;;;5.65;;
51724;SDS011;37801;53.224;6.552;2023-06-19T04:07:48;9.20;;;5.63;;
51724;SDS011;37801;53.224;6.552;2023-06-19T04:10:14;6.22;;;5.32;;
51724;SDS011;37801;53.224;6.552;2023-06-19T04:12:40;6.97;;;5.30;;
51724;SDS011;37801;53.224;6.552;2023-06-19T04:15:07;7.50;;;5.68;;
51724;SDS011;37801;53.224;6.552;2023-06-19T04:17:33;7.05;;;5.50;;
51724;SDS011;37801;53.224;6.552;2023-06-19T04:19:59;6.95;;;5.15;;
51724;SDS011;37801;53.224;6.552;2023-06-19T04:22:26;6.38;;;5.18;;
51724;SDS011;37801;53.224;6.552;2023-06-19T04:24:52;6.32;;;5.10;;
51724;SDS011;37801;53.224;6.552;2023-06-19T04:27:18;7.30;;;5.05;;
51724;SDS011;37801;53.224;6.552;2023-06-19T04:29:44;7.57;;;5.50;;
51724;SDS011;37801;53.224;6.552;2023-06-19T04:32:11;6.18;;;5.07;;
51724;SDS011;37801;53.224;6.552;2023-06-19T04:34:38;7.55;;;5.38;;
51724;SDS011;37801;53.224;6.552;2023-06-19T04:37:04;7.13;;;5.13;;
51724;SDS011;37801;53.224;6.552;2023-06-19T04:39:31;6.63;;;5.10;;
51724;SDS011;37801;53.224;6.552;2023-06-19T04:41:57;6.38;;;5.00;;
51724;SDS011;37801;53.224;6.552;2023-06-19T04:44:23;7.32;;;5.15;;
51724;SDS011;37801;53.224;6.552;2023-06-19T04:46:49;6.90;;;5.13;;
51724;SDS011;37801;53.224;6.552;2023-06-19T04:49:15;6.03;;;4.70;;
51724;SDS011;37801;53.224;6.552;2023-06-19T04:51:41;6.05;;;4.50;;
51724;SDS011;37801;53.224;6.552;2023-06-19T04:54:07;7.32;;;4.32;;
51724;SDS011;37801;53.224;6.552;2023-06-19T04:56:33;4.82;;;3.53;;
51724;SDS011;37801;53.224;6.552;2023-06-19T04:59:00;5.35;;;3.55;;
51724;SDS011;37801;53.224;6.552;2023-06-19T05:01:27;4.65;;;3.63;;
51724;SDS011;37801;53.224;6.552;2023-06-19T05:03:54;6.07;;;3.90;;
51724;SDS011;37801;53.224;6.552;2023-06-19T05:06:24;5.30;;;3.75;;
51724;SDS011;37801;53.224;6.552;2023-06-19T05:08:50;4.88;;;3.72;;
51724;SDS011;37801;53.224;6.552;2023-06-19T05:11:17;4.75;;;3.28;;
51724;SDS011;37801;53.224;6.552;2023-06-19T05:13:43;5.28;;;3.58;;
51724;SDS011;37801;53.224;6.552;2023-06-19T05:16:10;3.90;;;3.17;;
51724;SDS011;37801;53.224;6.552;2023-06-19T05:18:40;5.22;;;3.45;;
51724;SDS011;37801;53.224;6.552;2023-06-19T05:21:06;5.13;;;3.65;;
51724;SDS011;37801;53.224;6.552;2023-06-19T05:23:32;4.45;;;3.53;;
51724;SDS011;37801;53.224;6.552;2023-06-19T05:25:58;5.18;;;3.50;;
51724;SDS011;37801;53.224;6.552;2023-06-19T05:28:24;9.30;;;3.70;;
51724;SDS011;37801;53.224;6.552;2023-06-19T05:30:50;4.95;;;3.17;;
51724;SDS011;37801;53.224;6.552;2023-06-19T05:33:17;5.25;;;3.95;;
51724;SDS011;37801;53.224;6.552;2023-06-19T05:35:43;6.38;;;3.95;;
51724;SDS011;37801;53.224;6.552;2023-06-19T05:38:16;5.05;;;3.60;;
51724;SDS011;37801;53.224;6.552;2023-06-19T05:40:42;6.15;;;3.42;;
51724;SDS011;37801;53.224;6.552;2023-06-19T05:43:08;5.45;;;3.30;;
51724;SDS011;37801;53.224;6.552;2023-06-19T05:45:34;4.55;;;3.72;;
51724;SDS011;37801;53.224;6.552;2023-06-19T05:48:00;6.05;;;4.47;;
51724;SDS011;37801;53.224;6.552;2023-06-19T05:50:27;4.55;;;3.50;;
51724;SDS011;37801;53.224;6.552;2023-06-19T05:52:53;4.30;;;3.58;;
51724;SDS011;37801;53.224;6.552;2023-06-19T05:55:19;4.60;;;3.45;;
51724;SDS011;37801;53.224;6.552;2023-06-19T05:57:45;5.47;;;4.35;;
51724;SDS011;37801;53.224;6.552;2023-06-19T06:00:11;5.55;;;4.40;;
51724;SDS011;37801;53.224;6.552;2023-06-19T06:02:40;5.57;;;4.00;;
51724;SDS011;37801;53.224;6.552;2023-06-19T06:05:06;5.35;;;3.72;;
51724;SDS011;37801;53.224;6.552;2023-06-19T06:07:34;5.55;;;4.15;;
51724;SDS011;37801;53.224;6.552;2023-06-19T06:10:00;6.07;;;4.40;;
51724;SDS011;37801;53.224;6.552;2023-06-19T06:12:26;9.35;;;5.13;;
51724;SDS011;37801;53.224;6.552;2023-06-19T06:14:52;6.95;;;5.38;;
51724;SDS011;37801;53.224;6.552;2023-06-19T06:17:19;6.93;;;5.10;;
51724;SDS011;37801;53.224;6.552;2023-06-19T06:19:45;7.05;;;5.15;;
51724;SDS011;37801;53.224;6.552;2023-06-19T06:22:11;8.75;;;5.30;;
51724;SDS011;37801;53.224;6.552;2023-06-19T06:24:37;10.10;;;5.43;;
51724;SDS011;37801;53.224;6.552;2023-06-19T06:27:03;6.68;;;5.25;;
51724;SDS011;37801;53.224;6.552;2023-06-19T06:29:30;6.90;;;5.53;;
51724;SDS011;37801;53.224;6.552;2023-06-19T06:32:06;7.47;;;5.97;;
51724;SDS011;37801;53.224;6.552;2023-06-19T06:34:33;8.60;;;5.55;;
51724;SDS011;37801;53.224;6.552;2023-06-19T06:37:02;7.78;;;5.85;;
51724;SDS011;37801;53.224;6.552;2023-06-19T06:39:29;8.25;;;5.55;;
51724;SDS011;37801;53.224;6.552;2023-06-19T06:41:55;8.93;;;5.80;;
51724;SDS011;37801;53.224;6.552;2023-06-19T06:44:22;7.88;;;4.85;;
51724;SDS011;37801;53.224;6.552;2023-06-19T06:46:48;6.32;;;4.63;;
51724;SDS011;37801;53.224;6.552;2023-06-19T06:49:14;6.70;;;5.30;;
51724;SDS011;37801;53.224;6.552;2023-06-19T06:51:41;6.80;;;4.40;;
51724;SDS011;37801;53.224;6.552;2023-06-19T06:54:08;6.18;;;5.13;;
51724;SDS011;37801;53.224;6.552;2023-06-19T06:56:35;6.10;;;4.15;;
51724;SDS011;37801;53.224;6.552;2023-06-19T06:59:01;5.50;;;4.43;;
51724;SDS011;37801;53.224;6.552;2023-06-19T07:01:27;5.75;;;4.53;;
51724;SDS011;37801;53.224;6.552;2023-06-19T07:03:53;6.55;;;5.32;;
51724;SDS011;37801;53.224;6.552;2023-06-19T07:06:19;6.95;;;5.47;;
51724;SDS011;37801;53.224;6.552;2023-06-19T07:08:45;7.22;;;5.57;;
51724;SDS011;37801;53.224;6.552;2023-06-19T07:11:13;7.57;;;5.50;;
51724;SDS011;37801;53.224;6.552;2023-06-19T07:13:39;8.13;;;5.78;;
51724;SDS011;37801;53.224;6.552;2023-06-19T07:16:06;7.13;;;5.90;;
51724;SDS011;37801;53.224;6.552;2023-06-19T07:18:33;6.40;;;5.47;;
51724;SDS011;37801;53.224;6.552;2023-06-19T07:21:02;7.20;;;5.53;;
51724;SDS011;37801;53.224;6.552;2023-06-19T07:23:30;7.03;;;5.55;;
51724;SDS011;37801;53.224;6.552;2023-06-19T07:25:56;6.80;;;5.65;;
51724;SDS011;37801;53.224;6.552;2023-06-19T07:28:22;7.82;;;6.38;;
51724;SDS011;37801;53.224;6.552;2023-06-19T07:30:48;8.98;;;7.43;;
51724;SDS011;37801;53.224;6.552;2023-06-19T07:33:17;10.02;;;7.75;;
51724;SDS011;37801;53.224;6.552;2023-06-19T07:35:43;12.32;;;8.60;;
51724;SDS011;37801;53.224;6.552;2023-06-19T07:38:09;10.55;;;8.48;;
51724;SDS011;37801;53.224;6.552;2023-06-19T07:40:35;12.35;;;9.55;;
51724;SDS011;37801;53.224;6.552;2023-06-19T07:43:01;13.30;;;10.32;;
51724;SDS011;37801;53.224;6.552;2023-06-19T07:45:28;13.73;;;10.75;;
51724;SDS011;37801;53.224;6.552;2023-06-19T07:47:57;15.77;;;11.52;;
51724;SDS011;37801;53.224;6.552;2023-06-19T07:50:23;18.20;;;11.65;;
51724;SDS011;37801;53.224;6.552;2023-06-19T07:52:49;15.75;;;11.95;;
51724;SDS011;37801;53.224;6.552;2023-06-19T07:55:15;15.70;;;12.05;;
51724;SDS011;37801;53.224;6.552;2023-06-19T07:57:42;15.73;;;11.43;;
51724;SDS011;37801;53.224;6.552;2023-06-19T08:00:08;15.40;;;11.88;;
51724;SDS011;37801;53.224;6.552;2023-06-19T08:02:38;16.35;;;11.45;;
51724;SDS011;37801;53.224;6.552;2023-06-19T08:05:04;16.73;;;11.73;;
51724;SDS011;37801;53.224;6.552;2023-06-19T08:07:31;16.02;;;10.82;;
51724;SDS011;37801;53.224;6.552;2023-06-19T08:09:57;14.00;;;10.88;;
51724;SDS011;37801;53.224;6.552;2023-06-19T08:12:23;13.43;;;10.73;;
51724;SDS011;37801;53.224;6.552;2023-06-19T08:14:49;14.25;;;9.98;;
51724;SDS011;37801;53.224;6.552;2023-06-19T08:17:15;12.82;;;9.60;;
51724;SDS011;37801;53.224;6.552;2023-06-19T08:19:41;11.65;;;7.93;;
51724;SDS011;37801;53.224;6.552;2023-06-19T08:22:08;12.57;;;8.40;;
51724;SDS011;37801;53.224;6.552;2023-06-19T08:24:35;11.98;;;8.95;;
51724;SDS011;37801;53.224;6.552;2023-06-19T08:27:01;13.65;;;7.53;;
51724;SDS011;37801;53.224;6.552;2023-06-19T08:29:27;9.57;;;7.47;;
51724;SDS011;37801;53.224;6.552;2023-06-19T08:31:54;9.20;;;6.68;;
51724;SDS011;37801;53.224;6.552;2023-06-19T08:34:23;11.60;;;6.88;;
51724;SDS011;37801;53.224;6.552;2023-06-19T08:36:49;9.75;;;6.90;;
51724;SDS011;37801;53.224;6.552;2023-06-19T08:39:15;8.38;;;5.95;;
51724;SDS011;37801;53.224;6.552;2023-06-19T08:41:42;8.85;;;6.40;;
51724;SDS011;37801;53.224;6.552;2023-06-19T08:44:08;9.15;;;6.43;;
51724;SDS011;37801;53.224;6.552;2023-06-19T08:46:34;7.93;;;5.93;;
51724;SDS011;37801;53.224;6.552;2023-06-19T08:58:30;6.28;;;5.00;;
51724;SDS011;37801;53.224;6.552;2023-06-19T09:00:59;6.50;;;4.78;;
51724;SDS011;37801;53.224;6.552;2023-06-19T09:03:25;9.07;;;4.78;;
51724;SDS011;37801;53.224;6.552;2023-06-19T09:05:52;7.35;;;4.85;;
51724;SDS011;37801;53.224;6.552;2023-06-19T09:08:18;6.15;;;4.10;;
51724;SDS011;37801;53.224;6.552;2023-06-19T09:10:55;8.80;;;4.32;;
51724;SDS011;37801;53.224;6.552;2023-06-19T09:13:21;7.70;;;4.13;;
51724;SDS011;37801;53.224;6.552;2023-06-19T09:15:47;5.75;;;3.80;;
51724;SDS011;37801;53.224;6.552;2023-06-19T09:18:15;9.55;;;3.78;;
51724;SDS011;37801;53.224;6.552;2023-06-19T09:20:41;4.78;;;3.35;;
51724;SDS011;37801;53.224;6.552;2023-06-19T09:23:12;7.18;;;4.10;;
51724;SDS011;37801;53.224;6.552;2023-06-19T09:25:49;7.38;;;4.60;;
51724;SDS011;37801;53.224;6.552;2023-06-19T09:30:57;6.17;;;3.20;;
51724;SDS011;37801;53.224;6.552;2023-06-19T09:33:25;6.38;;;3.63;;
51724;SDS011;37801;53.224;6.552;2023-06-19T09:35:51;7.80;;;3.80;;
51724;SDS011;37801;53.224;6.552;2023-06-19T09:38:18;5.85;;;3.30;;
